createdAt,value
2022-09-27T00:04:26.114Z,171.30627
2022-09-27T00:09:27.697Z,174.71161
2022-09-27T00:14:29.309Z,181.83784
2022-09-27T00:19:30.991Z,182.75969
2022-09-27T00:24:32.740Z,177.33333
2022-09-27T00:29:34.342Z,178.22053
2022-09-27T00:34:35.984Z,175.57895
2022-09-27T00:39:37.621Z,179.1145
2022-09-27T00:44:39.226Z,170.47059
2022-09-27T00:49:40.840Z,164
2022-09-27T00:54:42.485Z,162.43972
2022-09-27T00:59:44.142Z,164.78853
2022-09-27T01:04:45.803Z,163.21708
2022-09-27T01:09:47.408Z,179.1145
2022-09-27T01:14:48.987Z,172.14815
2022-09-27T01:19:50.600Z,172.99628
2022-09-27T01:24:52.290Z,176.45283
2022-09-27T01:29:53.900Z,174.71161
2022-09-27T01:34:55.480Z,175.57895
2022-09-27T01:39:57.110Z,168
2022-09-27T01:44:58.727Z,165.58273
2022-09-27T01:50:00.417Z,168.81752
2022-09-27T01:55:02.048Z,174.71161
2022-09-27T02:00:03.675Z,177.33333
2022-09-27T02:05:05.276Z,176.45283
2022-09-27T02:10:06.919Z,173.85075
2022-09-27T02:15:08.572Z,180.01533
2022-09-27T02:20:10.174Z,184.625
2022-09-27T02:25:11.799Z,183.68872
2022-09-27T02:30:13.421Z,177.33333
2022-09-27T02:35:15.024Z,180.01533
2022-09-27T02:40:16.721Z,180.92308
2022-09-27T02:45:18.409Z,180.01533
2022-09-27T02:50:19.991Z,186.51969
2022-09-27T02:55:21.614Z,191.38956
2022-09-27T03:00:23.229Z,197.49794
2022-09-27T03:05:24.864Z,195.42857
2022-09-27T03:10:26.497Z,202.82353
2022-09-27T03:15:28.171Z,195.42857
2022-09-27T03:20:29.812Z,191.38956
2022-09-27T03:25:31.432Z,188.44444
2022-09-27T03:30:33.100Z,186.51969
2022-09-27T03:35:34.755Z,181.83784
2022-09-27T03:40:36.646Z,191.38956
2022-09-27T03:45:38.316Z,198.54545
2022-09-27T03:50:39.923Z,189.41833
2022-09-27T03:55:41.570Z,187.47826
2022-09-27T04:00:43.144Z,181.83784
2022-09-27T04:05:44.745Z,188.44444
2022-09-27T04:10:46.363Z,187.47826
2022-09-27T04:15:52.012Z,185.56863
2022-09-27T04:20:54.406Z,193.39271
2022-09-27T04:25:56.012Z,194.4065
2022-09-27T04:30:57.711Z,193.39271
2022-09-27T04:35:59.427Z,196.45902
2022-09-27T04:41:01.138Z,189.41833
2022-09-27T04:46:02.909Z,188.44444
2022-09-27T04:51:05.263Z,184.625
2022-09-27T04:56:07.003Z,188.44444
2022-09-27T05:01:08.690Z,186.51969
2022-09-27T05:06:10.322Z,184.625
2022-09-27T05:11:11.901Z,184.625
2022-09-27T05:16:13.541Z,190.4
2022-09-27T05:21:15.265Z,193.39271
2022-09-27T05:26:16.922Z,195.42857
2022-09-27T05:31:18.606Z,200.66667
2022-09-27T05:36:20.435Z,197.49794
2022-09-27T05:41:22.777Z,202.82353
2022-09-27T05:46:24.646Z,195.42857
2022-09-27T05:51:26.240Z,192.3871
2022-09-27T05:56:27.980Z,189.41833
2022-09-27T06:01:29.655Z,190.4
2022-09-27T06:06:31.278Z,199.60166
2022-09-27T06:11:32.884Z,192.3871
2022-09-27T06:16:34.472Z,192.3871
2022-09-27T06:21:36.052Z,198.54545
2022-09-27T06:26:37.595Z,203.91561
2022-09-27T06:31:39.168Z,201.74059
2022-09-27T06:36:40.719Z,207.24786
2022-09-27T06:41:42.264Z,210.66667
2022-09-27T06:46:43.834Z,200.66667
2022-09-27T06:51:45.476Z,202.82353
2022-09-27T06:56:47.151Z,199.60166
2022-09-27T07:01:48.762Z,198.54545
2022-09-27T07:06:50.344Z,199.60166
2022-09-27T07:11:51.937Z,197.49794
2022-09-27T07:16:53.603Z,196.45902
2022-09-27T07:21:55.225Z,198.54545
2022-09-27T07:26:56.837Z,197.49794
2022-09-27T07:31:58.410Z,196.45902
2022-09-27T07:36:59.957Z,198.54545
2022-09-27T07:42:01.553Z,197.49794
2022-09-27T07:47:03.141Z,194.4065
2022-09-27T07:52:04.766Z,198.54545
2022-09-27T07:57:06.369Z,200.66667
2022-09-27T08:02:08.005Z,205.01695
2022-09-27T08:07:13.706Z,206.12766
2022-09-27T08:12:16.023Z,203.91561
2022-09-27T08:17:17.601Z,205.01695
2022-09-27T08:22:19.245Z,200.66667
2022-09-27T08:27:20.908Z,202.82353
2022-09-27T08:32:23.605Z,201.74059
2022-09-27T08:37:25.351Z,202.82353
2022-09-27T08:42:26.966Z,201.74059
2022-09-27T08:47:28.545Z,200.66667
2022-09-27T08:52:30.124Z,202.82353
2022-09-27T08:57:31.737Z,208.37768
2022-09-27T09:02:33.427Z,210.66667
2022-09-27T09:07:35.047Z,208.37768
2022-09-27T09:12:36.786Z,208.37768
2022-09-27T09:17:38.406Z,209.51724
2022-09-27T09:22:40.018Z,209.51724
2022-09-27T09:27:41.689Z,209.51724
2022-09-27T09:32:43.304Z,208.37768
2022-09-27T09:37:44.958Z,207.24786
2022-09-27T09:42:46.556Z,210.66667
2022-09-27T09:47:48.176Z,214.17544
2022-09-27T09:52:49.779Z,219
2022-09-27T09:57:51.365Z,217.77778
2022-09-27T10:02:52.930Z,219
2022-09-27T10:07:54.559Z,215.36564
2022-09-27T10:12:56.151Z,215.36564
2022-09-27T10:17:57.760Z,215.36564
2022-09-27T10:22:59.376Z,220.23318
2022-09-27T10:28:00.991Z,215.36564
2022-09-27T10:33:02.582Z,212.99563
2022-09-27T10:38:04.167Z,209.51724
2022-09-27T10:43:05.805Z,209.51724
2022-09-27T10:48:07.489Z,210.66667
2022-09-27T10:53:09.101Z,216.56637
2022-09-27T10:58:10.727Z,214.17544
2022-09-27T11:03:12.580Z,211.82609
2022-09-27T11:08:14.233Z,207.24786
2022-09-27T11:13:15.850Z,208.37768
2022-09-27T11:18:17.476Z,200.66667
2022-09-27T11:23:19.051Z,197.49794
2022-09-27T11:28:20.635Z,196.45902
2022-09-27T11:33:22.207Z,197.49794
2022-09-27T11:38:48.076Z,198.54545
2022-09-27T11:43:53.659Z,199.60166
2022-09-27T11:48:55.381Z,197.49794
2022-09-27T11:53:56.972Z,197.49794
2022-09-27T11:58:58.713Z,196.45902
2022-09-27T12:04:00.346Z,192.3871
2022-09-27T12:09:02.043Z,191.38956
2022-09-27T12:14:03.627Z,192.3871
2022-09-27T12:19:05.235Z,195.42857
2022-09-27T12:24:06.812Z,197.49794
2022-09-27T12:29:08.400Z,196.45902
2022-09-27T12:34:10.021Z,195.42857
2022-09-27T12:39:11.683Z,195.42857
2022-09-27T12:44:13.492Z,193.39271
2022-09-27T12:49:15.366Z,193.39271
2022-09-27T12:54:17.266Z,192.3871
2022-09-27T12:59:18.869Z,190.4
2022-09-27T13:04:20.470Z,194.4065
2022-09-27T13:09:22.127Z,194.4065
2022-09-27T13:14:23.747Z,198.54545
2022-09-27T13:19:27.210Z,198.54545
2022-09-27T13:24:28.940Z,193.39271
2022-09-27T13:29:30.590Z,191.38956
2022-09-27T13:34:32.184Z,193.39271
2022-09-27T13:39:33.787Z,191.38956
2022-09-27T13:44:35.421Z,191.38956
2022-09-27T13:49:37.022Z,192.3871
2022-09-27T13:54:38.582Z,173.85075
2022-09-27T13:59:40.217Z,180.92308
2022-09-27T14:04:41.800Z,184.625
2022-09-27T14:09:43.400Z,185.56863
2022-09-27T14:14:45.058Z,191.38956
2022-09-27T14:19:46.663Z,189.41833
2022-09-27T14:24:48.247Z,184.625
2022-09-27T14:29:49.834Z,181.83784
2022-09-27T14:34:51.423Z,186.51969
2022-09-27T14:39:53.050Z,180.92308
2022-09-27T14:44:54.634Z,183.68872
2022-09-27T14:49:56.251Z,180.92308
2022-09-27T14:54:57.854Z,181.83784
2022-09-27T14:59:59.444Z,195.42857
2022-09-27T15:05:01.103Z,200.66667
2022-09-27T15:10:02.750Z,196.45902
2022-09-27T15:15:04.357Z,203.91561
2022-09-27T15:20:05.989Z,201.74059
2022-09-27T15:25:07.695Z,206.12766
2022-09-27T15:30:09.987Z,206.12766
2022-09-27T15:35:11.562Z,202.82353
2022-09-27T15:40:13.147Z,205.01695
2022-09-27T15:45:14.757Z,201.74059
2022-09-27T15:50:16.326Z,206.12766
2022-09-27T15:55:17.930Z,200.66667
2022-09-27T16:00:19.620Z,199.60166
2022-09-27T16:05:21.217Z,195.42857
2022-09-27T16:10:22.989Z,199.60166
2022-09-27T16:15:24.572Z,199.60166
2022-09-27T16:20:26.200Z,196.45902
2022-09-27T16:25:27.838Z,200.66667
2022-09-27T16:30:29.424Z,198.54545
2022-09-27T16:35:31.023Z,207.24786
2022-09-27T16:40:32.698Z,200.66667
2022-09-27T16:45:34.292Z,198.54545
2022-09-27T16:50:35.935Z,202.82353
2022-09-27T16:55:37.508Z,206.12766
2022-09-27T17:00:39.099Z,207.24786
2022-09-27T17:05:40.763Z,206.12766
2022-09-27T17:10:42.377Z,201.74059
2022-09-27T17:15:44.011Z,195.42857
2022-09-27T17:20:45.673Z,196.45902
2022-09-27T17:25:47.332Z,207.24786
2022-09-27T17:30:49.060Z,202.82353
2022-09-27T17:35:50.663Z,201.74059
2022-09-27T17:40:52.288Z,208.37768
2022-09-27T17:45:53.950Z,209.51724
2022-09-27T17:50:55.617Z,219
2022-09-27T17:55:57.234Z,222.73303
2022-09-27T18:01:00.990Z,216.56637
2022-09-27T18:06:02.845Z,220.23318
2022-09-27T18:11:04.491Z,221.47748
2022-09-27T18:16:06.173Z,221.47748
2022-09-27T18:21:07.845Z,222.73303
2022-09-27T18:26:09.424Z,221.47748
2022-09-27T18:31:11.170Z,209.51724
2022-09-27T18:36:12.787Z,193.39271
2022-09-27T18:41:14.441Z,190.4
2022-09-27T18:46:34.490Z,187.47826
2022-09-27T18:51:37.841Z,201.74059
2022-09-27T18:56:39.767Z,205.01695
2022-09-27T19:01:41.444Z,199.60166
2022-09-27T19:06:43.092Z,200.66667
2022-09-27T19:11:44.676Z,203.91561
2022-09-27T19:16:46.339Z,219
2022-09-27T19:21:47.970Z,209.51724
2022-09-27T19:26:49.610Z,217.77778
2022-09-27T19:31:51.391Z,216.56637
2022-09-27T19:36:53.070Z,215.36564
2022-09-27T19:41:54.699Z,207.24786
2022-09-27T19:46:56.451Z,216.56637
2022-09-27T19:51:58.111Z,219
2022-09-27T19:56:59.699Z,212.99563
2022-09-27T20:02:01.402Z,210.66667
2022-09-27T20:07:03.052Z,206.12766
2022-09-27T20:12:04.708Z,209.51724
2022-09-27T20:17:06.397Z,205.01695
2022-09-27T20:22:08.027Z,200.66667
2022-09-27T20:27:09.613Z,202.82353
2022-09-27T20:32:27.290Z,214.17544
2022-09-27T20:37:29.434Z,219
2022-09-27T20:42:31.129Z,217.77778
2022-09-27T20:47:32.780Z,220.23318
2022-09-27T20:52:34.443Z,215.36564
2022-09-27T20:57:56.321Z,224
2022-09-27T21:02:59.361Z,222.73303
2022-09-27T21:08:00.990Z,233.20188
2022-09-27T21:13:02.603Z,229.18519
2022-09-27T21:18:04.189Z,234.56604
2022-09-27T21:23:05.833Z,231.85047
2022-09-27T21:28:07.384Z,229.18519
2022-09-27T21:33:08.975Z,230.51163
2022-09-27T21:38:10.594Z,233.20188
2022-09-27T21:43:12.265Z,256.69036
2022-09-27T21:48:13.932Z,229.18519
2022-09-27T21:53:15.549Z,241.58454
2022-09-27T21:58:17.159Z,224
2022-09-27T22:03:18.782Z,211.82609
2022-09-27T22:08:20.370Z,216.56637
2022-09-27T22:13:21.971Z,206.12766
2022-09-27T22:18:23.558Z,219
2022-09-27T22:23:25.187Z,220.23318
2022-09-27T22:28:26.811Z,208.37768
2022-09-27T22:33:28.476Z,211.82609
2022-09-27T22:38:30.122Z,211.82609
2022-09-27T22:43:31.727Z,209.51724
2022-09-27T22:48:33.364Z,196.45902
2022-09-27T22:53:34.983Z,188.44444
2022-09-27T22:58:36.893Z,183.68872
2022-09-27T23:03:38.609Z,181.83784
2022-09-27T23:08:40.217Z,177.33333
2022-09-27T23:13:41.835Z,174.71161
2022-09-27T23:18:43.487Z,187.47826
2022-09-27T23:23:45.150Z,172.99628
2022-09-27T23:28:46.812Z,182.75969
2022-09-27T23:33:48.413Z,173.85075
2022-09-27T23:38:50.026Z,173.85075
2022-09-27T23:43:51.655Z,172.99628
2022-09-27T23:48:53.253Z,174.71161
2022-09-27T23:53:54.878Z,175.57895
2022-09-27T23:58:56.453Z,181.83784
